sensor_id;sensor_type;location;lat;lon;timestamp;pressure;altitude;pressure_sealevel;temperature;humidity
27908;BME280;15249;48.092;11.484;2022-08-21T00:00:38;95459.06;;;16.09;100
27908;BME280;15249;48.092;11.484;2022-08-21T00:01:39;95459.06;;;16.09;100
27908;BME280;15249;48.092;11.484;2022-08-21T00:02:46;95459.06;;;16.09;100
27908;BME280;15249;48.092;11.484;2022-08-21T00:03:47;95459.06;;;16.09;100
27908;BME280;15249;48.092;11.484;2022-08-21T00:04:48;95459.06;;;16.09;100
27908;BME280;15249;48.092;11.484;2022-08-21T00:05:50;95459.06;;;16.09;100
27908;BME280;15249;48.092;11.484;2022-08-21T00:06:51;95457.1;;;15.87;100
27908;BME280;15249;48.092;11.484;2022-08-21T00:07:52;95457.1;;;15.87;100
27908;BME280;15249;48.092;11.484;2022-08-21T00:08:52;95457.1;;;15.87;100
27908;BME280;15249;48.092;11.484;2022-08-21T00:09:53;95457.1;;;15.87;100
27908;BME280;15249;48.092;11.484;2022-08-21T00:10:54;95457.1;;;15.87;100
27908;BME280;15249;48.092;11.484;2022-08-21T00:11:54;95457.1;;;15.87;100
27908;BME280;15249;48.092;11.484;2022-08-21T00:12:55;95457.1;;;15.87;100
27908;BME280;15249;48.092;11.484;2022-08-21T00:13:56;95457.1;;;15.87;100
27908;BME280;15249;48.092;11.484;2022-08-21T00:14:57;95457.1;;;15.87;100
27908;BME280;15249;48.092;11.484;2022-08-21T00:15:57;95457.1;;;15.87;100
27908;BME280;15249;48.092;11.484;2022-08-21T00:16:58;95465.56;;;15.76;100
27908;BME280;15249;48.092;11.484;2022-08-21T00:17:59;95465.56;;;15.76;100
27908;BME280;15249;48.092;11.484;2022-08-21T00:18:59;95465.56;;;15.76;100
27908;BME280;15249;48.092;11.484;2022-08-21T00:20:00;95465.56;;;15.76;100
27908;BME280;15249;48.092;11.484;2022-08-21T00:21:01;95465.56;;;15.76;100
27908;BME280;15249;48.092;11.484;2022-08-21T00:22:01;95465.56;;;15.76;100
27908;BME280;15249;48.092;11.484;2022-08-21T00:23:02;95465.56;;;15.76;100
27908;BME280;15249;48.092;11.484;2022-08-21T00:24:04;95465.56;;;15.76;100
27908;BME280;15249;48.092;11.484;2022-08-21T00:25:07;95465.56;;;15.76;100
27908;BME280;15249;48.092;11.484;2022-08-21T00:26:08;95465.56;;;15.76;100
27908;BME280;15249;48.092;11.484;2022-08-21T00:27:09;95465.56;;;15.76;100
27908;BME280;15249;48.092;11.484;2022-08-21T00:28:11;95454.75;;;15.6;100
27908;BME280;15249;48.092;11.484;2022-08-21T00:29:12;95454.75;;;15.6;100
27908;BME280;15249;48.092;11.484;2022-08-21T00:30:15;95454.75;;;15.6;100
27908;BME280;15249;48.092;11.484;2022-08-21T00:31:16;95454.75;;;15.6;100
27908;BME280;15249;48.092;11.484;2022-08-21T00:32:20;95454.75;;;15.6;100
27908;BME280;15249;48.092;11.484;2022-08-21T00:33:20;95454.75;;;15.6;100
27908;BME280;15249;48.092;11.484;2022-08-21T00:34:21;95454.75;;;15.6;100
27908;BME280;15249;48.092;11.484;2022-08-21T00:35:26;95454.75;;;15.6;100
27908;BME280;15249;48.092;11.484;2022-08-21T00:36:27;95454.75;;;15.6;100
27908;BME280;15249;48.092;11.484;2022-08-21T00:37:28;95454.75;;;15.6;100
27908;BME280;15249;48.092;11.484;2022-08-21T00:38:28;95445.67;;;15.53;100
27908;BME280;15249;48.092;11.484;2022-08-21T00:39:29;95445.67;;;15.53;100
27908;BME280;15249;48.092;11.484;2022-08-21T00:40:33;95445.67;;;15.53;100
27908;BME280;15249;48.092;11.484;2022-08-21T00:41:36;95445.67;;;15.53;100
27908;BME280;15249;48.092;11.484;2022-08-21T00:42:37;95445.67;;;15.53;100
27908;BME280;15249;48.092;11.484;2022-08-21T00:43:38;95445.67;;;15.53;100
27908;BME280;15249;48.092;11.484;2022-08-21T00:44:39;95445.67;;;15.53;100
27908;BME280;15249;48.092;11.484;2022-08-21T00:45:40;95445.67;;;15.53;100
27908;BME280;15249;48.092;11.484;2022-08-21T00:46:41;95445.67;;;15.53;100
27908;BME280;15249;48.092;11.484;2022-08-21T00:47:42;95445.67;;;15.53;100
27908;BME280;15249;48.092;11.484;2022-08-21T00:48:42;95458.65;;;15.41;100
27908;BME280;15249;48.092;11.484;2022-08-21T00:49:43;95458.65;;;15.41;100
27908;BME280;15249;48.092;11.484;2022-08-21T00:50:50;95458.65;;;15.41;100
27908;BME280;15249;48.092;11.484;2022-08-21T00:51:57;95458.65;;;15.41;100
27908;BME280;15249;48.092;11.484;2022-08-21T00:53:00;95458.65;;;15.41;100
27908;BME280;15249;48.092;11.484;2022-08-21T00:54:05;95458.65;;;15.41;100
27908;BME280;15249;48.092;11.484;2022-08-21T00:55:09;95458.65;;;15.41;100
27908;BME280;15249;48.092;11.484;2022-08-21T00:56:11;95458.65;;;15.41;100
27908;BME280;15249;48.092;11.484;2022-08-21T00:57:16;95458.65;;;15.41;100
27908;BME280;15249;48.092;11.484;2022-08-21T00:58:17;95458.65;;;15.41;100
27908;BME280;15249;48.092;11.484;2022-08-21T00:59:20;95452.11;;;15.35;100
27908;BME280;15249;48.092;11.484;2022-08-21T01:00:24;95452.11;;;15.35;100
27908;BME280;15249;48.092;11.484;2022-08-21T01:01:26;95452.11;;;15.35;100
27908;BME280;15249;48.092;11.484;2022-08-21T01:02:26;95452.11;;;15.35;100
27908;BME280;15249;48.092;11.484;2022-08-21T01:03:27;95452.11;;;15.35;100
27908;BME280;15249;48.092;11.484;2022-08-21T01:04:28;95452.11;;;15.35;100
27908;BME280;15249;48.092;11.484;2022-08-21T01:05:28;95452.11;;;15.35;100
27908;BME280;15249;48.092;11.484;2022-08-21T01:06:29;95452.11;;;15.35;100
27908;BME280;15249;48.092;11.484;2022-08-21T01:07:30;95452.11;;;15.35;100
27908;BME280;15249;48.092;11.484;2022-08-21T01:08:32;95452.11;;;15.35;100
27908;BME280;15249;48.092;11.484;2022-08-21T01:09:33;95452.11;;;15.35;100
27908;BME280;15249;48.092;11.484;2022-08-21T01:10:34;95445.17;;;15.22;100
27908;BME280;15249;48.092;11.484;2022-08-21T01:11:34;95445.17;;;15.22;100
27908;BME280;15249;48.092;11.484;2022-08-21T01:12:35;95445.17;;;15.22;100
27908;BME280;15249;48.092;11.484;2022-08-21T01:13:37;95445.17;;;15.22;100
27908;BME280;15249;48.092;11.484;2022-08-21T01:14:40;95445.17;;;15.22;100
27908;BME280;15249;48.092;11.484;2022-08-21T01:15:43;95445.17;;;15.22;100
27908;BME280;15249;48.092;11.484;2022-08-21T01:16:49;95445.17;;;15.22;100
27908;BME280;15249;48.092;11.484;2022-08-21T01:17:51;95445.17;;;15.22;100
27908;BME280;15249;48.092;11.484;2022-08-21T01:18:51;95445.17;;;15.22;100
27908;BME280;15249;48.092;11.484;2022-08-21T01:19:53;95445.17;;;15.22;100
27908;BME280;15249;48.092;11.484;2022-08-21T01:21:07;95438.78;;;15.15;100
27908;BME280;15249;48.092;11.484;2022-08-21T01:22:08;95438.78;;;15.15;100
27908;BME280;15249;48.092;11.484;2022-08-21T01:23:09;95438.78;;;15.15;100
27908;BME280;15249;48.092;11.484;2022-08-21T01:24:10;95438.78;;;15.15;100
27908;BME280;15249;48.092;11.484;2022-08-21T01:25:14;95438.78;;;15.15;100
27908;BME280;15249;48.092;11.484;2022-08-21T01:26:18;95438.78;;;15.15;100
27908;BME280;15249;48.092;11.484;2022-08-21T01:27:19;95438.78;;;15.15;100
27908;BME280;15249;48.092;11.484;2022-08-21T01:28:21;95438.78;;;15.15;100
27908;BME280;15249;48.092;11.484;2022-08-21T01:29:29;95438.78;;;15.15;100
27908;BME280;15249;48.092;11.484;2022-08-21T01:30:33;95438.78;;;15.15;100
27908;BME280;15249;48.092;11.484;2022-08-21T01:31:35;95437.81999999999;;;15.01;100
27908;BME280;15249;48.092;11.484;2022-08-21T01:32:36;95437.81999999999;;;15.01;100
27908;BME280;15249;48.092;11.484;2022-08-21T01:33:37;95437.81999999999;;;15.01;100
27908;BME280;15249;48.092;11.484;2022-08-21T01:34:40;95437.81999999999;;;15.01;100
27908;BME280;15249;48.092;11.484;2022-08-21T01:35:41;95437.81999999999;;;15.01;100
27908;BME280;15249;48.092;11.484;2022-08-21T01:36:41;95437.81999999999;;;15.01;100
27908;BME280;15249;48.092;11.484;2022-08-21T01:37:43;95437.81999999999;;;15.01;100
27908;BME280;15249;48.092;11.484;2022-08-21T01:38:43;95437.81999999999;;;15.01;100
27908;BME280;15249;48.092;11.484;2022-08-21T01:39:45;95437.81999999999;;;15.01;100
27908;BME280;15249;48.092;11.484;2022-08-21T01:40:46;95437.81999999999;;;15.01;100
27908;BME280;15249;48.092;11.484;2022-08-21T01:41:46;95437.81999999999;;;15.01;100
27908;BME280;15249;48.092;11.484;2022-08-21T01:42:47;95442.89;;;14.94;100
27908;BME280;15249;48.092;11.484;2022-08-21T01:43:48;95442.89;;;14.94;100
27908;BME280;15249;48.092;11.484;2022-08-21T01:44:49;95442.89;;;14.94;100
27908;BME280;15249;48.092;11.484;2022-08-21T01:45:49;95442.89;;;14.94;100
27908;BME280;15249;48.092;11.484;2022-08-21T01:46:50;95442.89;;;14.94;100
27908;BME280;15249;48.092;11.484;2022-08-21T01:47:51;95442.89;;;14.94;100
27908;BME280;15249;48.092;11.484;2022-08-21T01:48:52;95442.89;;;14.94;100
27908;BME280;15249;48.092;11.484;2022-08-21T01:49:53;95442.89;;;14.94;100
27908;BME280;15249;48.092;11.484;2022-08-21T01:50:53;95442.89;;;14.94;100
27908;BME280;15249;48.092;11.484;2022-08-21T01:51:54;95442.89;;;14.94;100
27908;BME280;15249;48.092;11.484;2022-08-21T01:52:54;95443.02;;;14.82;100
27908;BME280;15249;48.092;11.484;2022-08-21T01:53:55;95443.02;;;14.82;100
27908;BME280;15249;48.092;11.484;2022-08-21T01:54:55;95443.02;;;14.82;100
27908;BME280;15249;48.092;11.484;2022-08-21T01:55:56;95443.02;;;14.82;100
27908;BME280;15249;48.092;11.484;2022-08-21T01:56:58;95443.02;;;14.82;100
27908;BME280;15249;48.092;11.484;2022-08-21T01:57:59;95443.02;;;14.82;100
27908;BME280;15249;48.092;11.484;2022-08-21T01:58:59;95443.02;;;14.82;100
27908;BME280;15249;48.092;11.484;2022-08-21T02:00:00;95443.02;;;14.82;100
27908;BME280;15249;48.092;11.484;2022-08-21T02:01:02;95443.02;;;14.82;100
27908;BME280;15249;48.092;11.484;2022-08-21T02:02:04;95443.02;;;14.82;100
27908;BME280;15249;48.092;11.484;2022-08-21T02:03:05;95443.02;;;14.82;100
27908;BME280;15249;48.092;11.484;2022-08-21T02:04:06;95432.22;;;14.75;100
27908;BME280;15249;48.092;11.484;2022-08-21T02:05:09;95432.22;;;14.75;100
27908;BME280;15249;48.092;11.484;2022-08-21T02:06:13;95432.22;;;14.75;100
27908;BME280;15249;48.092;11.484;2022-08-21T02:07:15;95432.22;;;14.75;100
27908;BME280;15249;48.092;11.484;2022-08-21T02:08:15;95432.22;;;14.75;100
27908;BME280;15249;48.092;11.484;2022-08-21T02:09:16;95432.22;;;14.75;100
27908;BME280;15249;48.092;11.484;2022-08-21T02:10:20;95432.22;;;14.75;100
27908;BME280;15249;48.092;11.484;2022-08-21T02:11:21;95432.22;;;14.75;100
27908;BME280;15249;48.092;11.484;2022-08-21T02:12:21;95432.22;;;14.75;100
27908;BME280;15249;48.092;11.484;2022-08-21T02:13:22;95432.22;;;14.75;100
27908;BME280;15249;48.092;11.484;2022-08-21T02:14:22;95418.52;;;14.63;100
27908;BME280;15249;48.092;11.484;2022-08-21T02:15:23;95418.52;;;14.63;100
27908;BME280;15249;48.092;11.484;2022-08-21T02:16:24;95418.52;;;14.63;100
27908;BME280;15249;48.092;11.484;2022-08-21T02:17:24;95418.52;;;14.63;100
27908;BME280;15249;48.092;11.484;2022-08-21T02:18:25;95418.52;;;14.63;100
27908;BME280;15249;48.092;11.484;2022-08-21T02:19:25;95418.52;;;14.63;100
27908;BME280;15249;48.092;11.484;2022-08-21T02:20:28;95418.52;;;14.63;100
27908;BME280;15249;48.092;11.484;2022-08-21T02:21:29;95418.52;;;14.63;100
27908;BME280;15249;48.092;11.484;2022-08-21T02:22:30;95418.52;;;14.63;100
27908;BME280;15249;48.092;11.484;2022-08-21T02:23:31;95418.52;;;14.63;100
27908;BME280;15249;48.092;11.484;2022-08-21T02:24:32;95413.49;;;14.58;100
27908;BME280;15249;48.092;11.484;2022-08-21T02:25:33;95413.49;;;14.58;100
27908;BME280;15249;48.092;11.484;2022-08-21T02:26:34;95413.49;;;14.58;100
27908;BME280;15249;48.092;11.484;2022-08-21T02:27:38;95413.49;;;14.58;100
27908;BME280;15249;48.092;11.484;2022-08-21T02:28:41;95413.49;;;14.58;100
27908;BME280;15249;48.092;11.484;2022-08-21T02:29:41;95413.49;;;14.58;100
27908;BME280;15249;48.092;11.484;2022-08-21T02:30:44;95413.49;;;14.58;100
27908;BME280;15249;48.092;11.484;2022-08-21T02:31:45;95413.49;;;14.58;100
27908;BME280;15249;48.092;11.484;2022-08-21T02:32:45;95413.49;;;14.58;100
27908;BME280;15249;48.092;11.484;2022-08-21T02:33:46;95413.49;;;14.58;100
27908;BME280;15249;48.092;11.484;2022-08-21T02:34:47;95413.49;;;14.58;100
27908;BME280;15249;48.092;11.484;2022-08-21T02:35:49;95412.41;;;14.51;100
27908;BME280;15249;48.092;11.484;2022-08-21T02:36:49;95412.41;;;14.51;100
27908;BME280;15249;48.092;11.484;2022-08-21T02:37:52;95412.41;;;14.51;100
27908;BME280;15249;48.092;11.484;2022-08-21T02:38:53;95412.41;;;14.51;100
27908;BME280;15249;48.092;11.484;2022-08-21T02:39:54;95412.41;;;14.51;100
27908;BME280;15249;48.092;11.484;2022-08-21T02:40:55;95412.41;;;14.51;100
27908;BME280;15249;48.092;11.484;2022-08-21T02:41:55;95412.41;;;14.51;100
27908;BME280;15249;48.092;11.484;2022-08-21T02:42:56;95412.41;;;14.51;100
27908;BME280;15249;48.092;11.484;2022-08-21T02:43:57;95412.41;;;14.51;100
27908;BME280;15249;48.092;11.484;2022-08-21T02:44:58;95412.41;;;14.51;100
27908;BME280;15249;48.092;11.484;2022-08-21T02:45:59;95410.33;;;14.47;100
27908;BME280;15249;48.092;11.484;2022-08-21T02:46:59;95410.33;;;14.47;100
27908;BME280;15249;48.092;11.484;2022-08-21T02:48:01;95410.33;;;14.47;100
27908;BME280;15249;48.092;11.484;2022-08-21T02:49:02;95410.33;;;14.47;100
27908;BME280;15249;48.092;11.484;2022-08-21T02:50:05;95410.33;;;14.47;100
27908;BME280;15249;48.092;11.484;2022-08-21T02:51:09;95410.33;;;14.47;100
27908;BME280;15249;48.092;11.484;2022-08-21T02:52:11;95410.33;;;14.47;100
27908;BME280;15249;48.092;11.484;2022-08-21T02:53:15;95410.33;;;14.47;100
27908;BME280;15249;48.092;11.484;2022-08-21T02:54:16;95410.33;;;14.47;100
27908;BME280;15249;48.092;11.484;2022-08-21T02:55:16;95410.33;;;14.47;100
27908;BME280;15249;48.092;11.484;2022-08-21T02:56:19;95410.33;;;14.47;100
27908;BME280;15249;48.092;11.484;2022-08-21T02:57:20;95410.33;;;14.47;100
27908;BME280;15249;48.092;11.484;2022-08-21T02:58:24;95410.33;;;14.47;100
27908;BME280;15249;48.092;11.484;2022-08-21T02:59:24;95410.33;;;14.47;100
27908;BME280;15249;48.092;11.484;2022-08-21T03:00:27;95410.33;;;14.47;100
27908;BME280;15249;48.092;11.484;2022-08-21T03:01:28;95410.33;;;14.47;100
27908;BME280;15249;48.092;11.484;2022-08-21T03:02:28;95410.33;;;14.47;100
27908;BME280;15249;48.092;11.484;2022-08-21T03:03:29;95410.33;;;14.47;100
27908;BME280;15249;48.092;11.484;2022-08-21T03:04:29;95410.33;;;14.47;100
27908;BME280;15249;48.092;11.484;2022-08-21T03:05:32;95410.33;;;14.47;100
27908;BME280;15249;48.092;11.484;2022-08-21T03:06:33;95410.33;;;14.47;100
27908;BME280;15249;48.092;11.484;2022-08-21T03:07:34;95406.81;;;14.32;100
27908;BME280;15249;48.092;11.484;2022-08-21T03:08:36;95406.81;;;14.32;100
27908;BME280;15249;48.092;11.484;2022-08-21T03:09:37;95406.81;;;14.32;100
27908;BME280;15249;48.092;11.484;2022-08-21T03:10:40;95406.81;;;14.32;100
27908;BME280;15249;48.092;11.484;2022-08-21T03:11:41;95406.81;;;14.32;100
27908;BME280;15249;48.092;11.484;2022-08-21T03:12:41;95406.81;;;14.32;100
27908;BME280;15249;48.092;11.484;2022-08-21T03:13:42;95406.81;;;14.32;100
27908;BME280;15249;48.092;11.484;2022-08-21T03:14:43;95406.81;;;14.32;100
27908;BME280;15249;48.092;11.484;2022-08-21T03:15:44;95406.81;;;14.32;100
27908;BME280;15249;48.092;11.484;2022-08-21T03:16:45;95406.81;;;14.32;100
27908;BME280;15249;48.092;11.484;2022-08-21T03:17:46;95406.81;;;14.32;100
27908;BME280;15249;48.092;11.484;2022-08-21T03:18:47;95418.84;;;14.14;100
27908;BME280;15249;48.092;11.484;2022-08-21T03:19:47;95418.84;;;14.14;100
27908;BME280;15249;48.092;11.484;2022-08-21T03:20:48;95418.84;;;14.14;100
27908;BME280;15249;48.092;11.484;2022-08-21T03:21:48;95418.84;;;14.14;100
27908;BME280;15249;48.092;11.484;2022-08-21T03:22:49;95418.84;;;14.14;100
27908;BME280;15249;48.092;11.484;2022-08-21T03:23:50;95418.84;;;14.14;100
27908;BME280;15249;48.092;11.484;2022-08-21T03:24:51;95418.84;;;14.14;100
27908;BME280;15249;48.092;11.484;2022-08-21T03:25:52;95418.84;;;14.14;100
27908;BME280;15249;48.092;11.484;2022-08-21T03:26:53;95418.84;;;14.14;100
27908;BME280;15249;48.092;11.484;2022-08-21T03:27:53;95418.84;;;14.14;100
27908;BME280;15249;48.092;11.484;2022-08-21T03:28:54;95418.02;;;14.02;100
27908;BME280;15249;48.092;11.484;2022-08-21T03:29:54;95418.02;;;14.02;100
27908;BME280;15249;48.092;11.484;2022-08-21T03:30:55;95418.02;;;14.02;100
27908;BME280;15249;48.092;11.484;2022-08-21T03:31:56;95418.02;;;14.02;100
27908;BME280;15249;48.092;11.484;2022-08-21T03:32:56;95418.02;;;14.02;100
27908;BME280;15249;48.092;11.484;2022-08-21T03:33:58;95418.02;;;14.02;100
27908;BME280;15249;48.092;11.484;2022-08-21T03:34:59;95418.02;;;14.02;100
27908;BME280;15249;48.092;11.484;2022-08-21T03:36:03;95418.02;;;14.02;100
27908;BME280;15249;48.092;11.484;2022-08-21T03:37:06;95418.02;;;14.02;100
27908;BME280;15249;48.092;11.484;2022-08-21T03:38:07;95418.02;;;14.02;100
27908;BME280;15249;48.092;11.484;2022-08-21T03:39:08;95418.02;;;14.02;100
27908;BME280;15249;48.092;11.484;2022-08-21T03:40:14;95409.33;;;13.89;100
27908;BME280;15249;48.092;11.484;2022-08-21T03:41:15;95409.33;;;13.89;100
27908;BME280;15249;48.092;11.484;2022-08-21T03:42:16;95409.33;;;13.89;100
27908;BME280;15249;48.092;11.484;2022-08-21T03:43:17;95409.33;;;13.89;100
27908;BME280;15249;48.092;11.484;2022-08-21T03:44:17;95409.33;;;13.89;100
27908;BME280;15249;48.092;11.484;2022-08-21T03:45:18;95409.33;;;13.89;100
27908;BME280;15249;48.092;11.484;2022-08-21T03:46:19;95409.33;;;13.89;100
27908;BME280;15249;48.092;11.484;2022-08-21T03:47:22;95409.33;;;13.89;100
27908;BME280;15249;48.092;11.484;2022-08-21T03:48:22;95409.33;;;13.89;100
27908;BME280;15249;48.092;11.484;2022-08-21T03:49:23;95409.33;;;13.89;100
27908;BME280;15249;48.092;11.484;2022-08-21T03:50:26;95411.0;;;13.81;100
27908;BME280;15249;48.092;11.484;2022-08-21T03:51:27;95411.0;;;13.81;100
27908;BME280;15249;48.092;11.484;2022-08-21T03:52:27;95411.0;;;13.81;100
27908;BME280;15249;48.092;11.484;2022-08-21T03:53:28;95411.0;;;13.81;100
27908;BME280;15249;48.092;11.484;2022-08-21T03:54:28;95411.0;;;13.81;100
27908;BME280;15249;48.092;11.484;2022-08-21T03:55:29;95411.0;;;13.81;100
27908;BME280;15249;48.092;11.484;2022-08-21T03:56:30;95411.0;;;13.81;100
27908;BME280;15249;48.092;11.484;2022-08-21T03:57:30;95411.0;;;13.81;100
27908;BME280;15249;48.092;11.484;2022-08-21T03:58:31;95411.0;;;13.81;100
27908;BME280;15249;48.092;11.484;2022-08-21T03:59:31;95411.0;;;13.81;100
27908;BME280;15249;48.092;11.484;2022-08-21T04:00:32;95421.31000000001;;;13.69;100
27908;BME280;15249;48.092;11.484;2022-08-21T04:01:33;95421.31000000001;;;13.69;100
27908;BME280;15249;48.092;11.484;2022-08-21T04:02:34;95421.31000000001;;;13.69;100
27908;BME280;15249;48.092;11.484;2022-08-21T04:03:36;95421.31000000001;;;13.69;100
27908;BME280;15249;48.092;11.484;2022-08-21T04:04:37;95421.31000000001;;;13.69;100
27908;BME280;15249;48.092;11.484;2022-08-21T04:05:37;95421.31000000001;;;13.69;100
27908;BME280;15249;48.092;11.484;2022-08-21T04:06:38;95421.31000000001;;;13.69;100
27908;BME280;15249;48.092;11.484;2022-08-21T04:07:38;95421.31000000001;;;13.69;100
27908;BME280;15249;48.092;11.484;2022-08-21T04:08:40;95421.31000000001;;;13.69;100
27908;BME280;15249;48.092;11.484;2022-08-21T04:09:41;95421.31000000001;;;13.69;100
27908;BME280;15249;48.092;11.484;2022-08-21T04:10:43;95421.31000000001;;;13.69;100
27908;BME280;15249;48.092;11.484;2022-08-21T04:11:44;95424.25;;;13.64;100
27908;BME280;15249;48.092;11.484;2022-08-21T04:12:44;95424.25;;;13.64;100
27908;BME280;15249;48.092;11.484;2022-08-21T04:13:45;95424.25;;;13.64;100
27908;BME280;15249;48.092;11.484;2022-08-21T04:14:46;95424.25;;;13.64;100
27908;BME280;15249;48.092;11.484;2022-08-21T04:15:47;95424.25;;;13.64;100
27908;BME280;15249;48.092;11.484;2022-08-21T04:16:47;95424.25;;;13.64;100
27908;BME280;15249;48.092;11.484;2022-08-21T04:17:48;95424.25;;;13.64;100
27908;BME280;15249;48.092;11.484;2022-08-21T04:18:49;95424.25;;;13.64;100
27908;BME280;15249;48.092;11.484;2022-08-21T04:19:49;95424.25;;;13.64;100
27908;BME280;15249;48.092;11.484;2022-08-21T04:20:51;95424.25;;;13.64;100
27908;BME280;15249;48.092;11.484;2022-08-21T04:21:54;95424.11;;;13.53;100
27908;BME280;15249;48.092;11.484;2022-08-21T04:22:54;95424.11;;;13.53;100
27908;BME280;15249;48.092;11.484;2022-08-21T04:23:55;95424.11;;;13.53;100
27908;BME280;15249;48.092;11.484;2022-08-21T04:24:56;95424.11;;;13.53;100
27908;BME280;15249;48.092;11.484;2022-08-21T04:25:56;95424.11;;;13.53;100
27908;BME280;15249;48.092;11.484;2022-08-21T04:26:57;95424.11;;;13.53;100
27908;BME280;15249;48.092;11.484;2022-08-21T04:27:58;95424.11;;;13.53;100
27908;BME280;15249;48.092;11.484;2022-08-21T04:28:59;95424.11;;;13.53;100
27908;BME280;15249;48.092;11.484;2022-08-21T04:30:00;95424.11;;;13.53;100
27908;BME280;15249;48.092;11.484;2022-08-21T04:31:00;95424.11;;;13.53;100
27908;BME280;15249;48.092;11.484;2022-08-21T04:32:01;95424.11;;;13.53;100
27908;BME280;15249;48.092;11.484;2022-08-21T04:33:03;95439.33;;;13.52;100
27908;BME280;15249;48.092;11.484;2022-08-21T04:34:05;95439.33;;;13.52;100
27908;BME280;15249;48.092;11.484;2022-08-21T04:35:08;95439.33;;;13.52;100
27908;BME280;15249;48.092;11.484;2022-08-21T04:36:10;95439.33;;;13.52;100
27908;BME280;15249;48.092;11.484;2022-08-21T04:37:11;95439.33;;;13.52;100
27908;BME280;15249;48.092;11.484;2022-08-21T04:38:11;95439.33;;;13.52;100
27908;BME280;15249;48.092;11.484;2022-08-21T04:39:12;95439.33;;;13.52;100
27908;BME280;15249;48.092;11.484;2022-08-21T04:40:15;95439.33;;;13.52;100
27908;BME280;15249;48.092;11.484;2022-08-21T04:41:16;95439.33;;;13.52;100
27908;BME280;15249;48.092;11.484;2022-08-21T04:42:17;95439.33;;;13.52;100
27908;BME280;15249;48.092;11.484;2022-08-21T04:43:18;95444.59000000001;;;13.5;100
27908;BME280;15249;48.092;11.484;2022-08-21T04:44:20;95444.59000000001;;;13.5;100
27908;BME280;15249;48.092;11.484;2022-08-21T04:45:23;95444.59000000001;;;13.5;100
27908;BME280;15249;48.092;11.484;2022-08-21T04:46:23;95444.59000000001;;;13.5;100
27908;BME280;15249;48.092;11.484;2022-08-21T04:47:24;95444.59000000001;;;13.5;100
27908;BME280;15249;48.092;11.484;2022-08-21T04:48:25;95444.59000000001;;;13.5;100
27908;BME280;15249;48.092;11.484;2022-08-21T04:49:26;95444.59000000001;;;13.5;100
27908;BME280;15249;48.092;11.484;2022-08-21T04:50:29;95444.59000000001;;;13.5;100
27908;BME280;15249;48.092;11.484;2022-08-21T04:51:34;95444.59000000001;;;13.5;100
27908;BME280;15249;48.092;11.484;2022-08-21T04:52:37;95444.59000000001;;;13.5;100
27908;BME280;15249;48.092;11.484;2022-08-21T04:53:40;95444.59000000001;;;13.5;100
27908;BME280;15249;48.092;11.484;2022-08-21T04:54:43;95456.17;;;13.61;100
27908;BME280;15249;48.092;11.484;2022-08-21T04:55:44;95456.17;;;13.61;100
27908;BME280;15249;48.092;11.484;2022-08-21T04:56:50;95456.17;;;13.61;100
27908;BME280;15249;48.092;11.484;2022-08-21T04:57:54;95456.17;;;13.61;100
27908;BME280;15249;48.092;11.484;2022-08-21T04:58:58;95456.17;;;13.61;100
27908;BME280;15249;48.092;11.484;2022-08-21T05:00:00;95456.17;;;13.61;100
27908;BME280;15249;48.092;11.484;2022-08-21T05:01:02;95456.17;;;13.61;100
27908;BME280;15249;48.092;11.484;2022-08-21T05:02:05;95456.17;;;13.61;100
27908;BME280;15249;48.092;11.484;2022-08-21T05:03:07;95456.17;;;13.61;100
27908;BME280;15249;48.092;11.484;2022-08-21T05:04:11;95456.17;;;13.61;100
27908;BME280;15249;48.092;11.484;2022-08-21T05:05:13;95455.72;;;13.64;100
27908;BME280;15249;48.092;11.484;2022-08-21T05:06:14;95455.72;;;13.64;100
27908;BME280;15249;48.092;11.484;2022-08-21T05:07:21;95455.72;;;13.64;100
27908;BME280;15249;48.092;11.484;2022-08-21T05:08:25;95455.72;;;13.64;100
27908;BME280;15249;48.092;11.484;2022-08-21T05:09:27;95455.72;;;13.64;100
27908;BME280;15249;48.092;11.484;2022-08-21T05:10:28;95455.72;;;13.64;100
27908;BME280;15249;48.092;11.484;2022-08-21T05:11:29;95455.72;;;13.64;100
27908;BME280;15249;48.092;11.484;2022-08-21T05:12:31;95455.72;;;13.64;100
27908;BME280;15249;48.092;11.484;2022-08-21T05:13:31;95455.72;;;13.64;100
27908;BME280;15249;48.092;11.484;2022-08-21T05:14:33;95455.72;;;13.64;100
27908;BME280;15249;48.092;11.484;2022-08-21T05:15:34;95442.93000000001;;;13.78;100
27908;BME280;15249;48.092;11.484;2022-08-21T05:16:35;95442.93000000001;;;13.78;100
27908;BME280;15249;48.092;11.484;2022-08-21T05:17:36;95442.93000000001;;;13.78;100
27908;BME280;15249;48.092;11.484;2022-08-21T05:18:36;95442.93000000001;;;13.78;100
27908;BME280;15249;48.092;11.484;2022-08-21T05:19:37;95442.93000000001;;;13.78;100
27908;BME280;15249;48.092;11.484;2022-08-21T05:20:38;95442.93000000001;;;13.78;100
27908;BME280;15249;48.092;11.484;2022-08-21T05:21:40;95442.93000000001;;;13.78;100
27908;BME280;15249;48.092;11.484;2022-08-21T05:22:41;95442.93000000001;;;13.78;100
27908;BME280;15249;48.092;11.484;2022-08-21T05:23:42;95442.93000000001;;;13.78;100
27908;BME280;15249;48.092;11.484;2022-08-21T05:24:43;95442.93000000001;;;13.78;100
27908;BME280;15249;48.092;11.484;2022-08-21T05:25:43;95442.93000000001;;;13.78;100